createdAt,value
2022-08-30T00:02:20.960Z,15.31
2022-08-30T00:04:48.457Z,15.34
2022-08-30T00:07:15.758Z,15.33
2022-08-30T00:09:42.607Z,15.33
2022-08-30T00:12:09.909Z,15.34
2022-08-30T00:14:37.210Z,15.32
2022-08-30T00:17:04.508Z,15.33
2022-08-30T00:19:31.461Z,15.32
2022-08-30T00:21:58.464Z,15.32
2022-08-30T00:24:25.416Z,15.31
2022-08-30T00:26:52.361Z,15.31
2022-08-30T00:29:19.323Z,15.32
2022-08-30T00:31:46.434Z,15.31
2022-08-30T00:34:13.407Z,15.29
2022-08-30T00:36:40.406Z,15.28
2022-08-30T00:39:07.281Z,15.29
2022-08-30T00:41:35.045Z,15.29
2022-08-30T00:44:02.179Z,15.28
2022-08-30T00:46:29.257Z,15.28
2022-08-30T00:48:57.169Z,15.26
2022-08-30T00:51:24.364Z,15.25
2022-08-30T00:53:57.621Z,15.28
2022-08-30T00:56:25.505Z,15.28
2022-08-30T00:58:55.838Z,15.26
2022-08-30T01:01:23.793Z,15.27
2022-08-30T01:03:51.225Z,15.26
2022-08-30T01:06:18.562Z,15.24
2022-08-30T01:08:47.347Z,15.24
2022-08-30T01:11:19.229Z,15.21
2022-08-30T01:13:47.448Z,15.21
2022-08-30T01:16:15.305Z,15.17
2022-08-30T01:18:43.801Z,15.18
2022-08-30T01:21:38.458Z,15.16
2022-08-30T01:24:07.506Z,15.15
2022-08-30T01:26:36.300Z,15.15
2022-08-30T01:29:13.276Z,15.15
2022-08-30T01:31:40.258Z,15.14
2022-08-30T01:34:08.307Z,15.16
2022-08-30T01:36:45.185Z,15.17
2022-08-30T01:39:15.083Z,15.18
2022-08-30T01:41:43.863Z,15.16
2022-08-30T01:44:12.457Z,15.14
2022-08-30T01:46:43.769Z,15.16
2022-08-30T01:49:13.630Z,15.14
2022-08-30T01:51:41.189Z,15.12
2022-08-30T01:54:08.597Z,15.13
2022-08-30T01:56:36.709Z,15.12
2022-08-30T01:59:04.577Z,15.12
2022-08-30T02:01:34.126Z,15.11
2022-08-30T02:04:01.250Z,15.11
2022-08-30T02:06:28.239Z,15.10
2022-08-30T02:08:55.533Z,15.09
2022-08-30T02:11:22.627Z,15.09
2022-08-30T02:13:49.878Z,15.07
2022-08-30T02:16:20.637Z,15.06
2022-08-30T02:18:47.678Z,15.04
2022-08-30T02:21:15.251Z,15.02
2022-08-30T02:23:42.684Z,15.03
2022-08-30T02:26:10.914Z,15.07
2022-08-30T02:28:42.853Z,15.02
2022-08-30T02:31:20.381Z,15.04
2022-08-30T02:33:50.402Z,15.06
2022-08-30T02:36:18.745Z,15.08
2022-08-30T02:38:46.303Z,15.04
2022-08-30T02:41:13.973Z,15.03
2022-08-30T02:43:41.087Z,15.03
2022-08-30T02:46:08.404Z,15.03
2022-08-30T02:48:35.351Z,15.03
2022-08-30T02:51:11.403Z,15.01
2022-08-30T02:53:40.452Z,15.01
2022-08-30T02:56:08.525Z,15.01
2022-08-30T02:58:36.349Z,15.00
2022-08-30T03:01:04.297Z,14.97
2022-08-30T03:03:32.246Z,14.98
2022-08-30T03:05:59.212Z,14.98
2022-08-30T03:08:26.159Z,14.98
2022-08-30T03:10:52.987Z,14.97
2022-08-30T03:13:20.203Z,14.96
2022-08-30T03:15:49.091Z,14.94
2022-08-30T03:18:17.125Z,14.95
2022-08-30T03:20:44.134Z,14.95
2022-08-30T03:23:21.965Z,14.96
2022-08-30T03:25:49.065Z,14.96
2022-08-30T03:28:16.013Z,14.97
2022-08-30T03:30:42.909Z,14.95
2022-08-30T03:33:09.900Z,14.94
2022-08-30T03:35:38.352Z,14.96
2022-08-30T03:38:05.876Z,14.93
2022-08-30T03:40:32.985Z,14.92
2022-08-30T03:43:01.249Z,14.88
2022-08-30T03:45:28.273Z,14.91
2022-08-30T03:47:55.564Z,14.92
2022-08-30T03:50:22.738Z,14.89
2022-08-30T03:52:49.904Z,14.89
2022-08-30T03:55:17.277Z,14.87
2022-08-30T03:57:44.167Z,14.87
2022-08-30T04:00:13.324Z,14.87
2022-08-30T04:02:40.939Z,14.88
2022-08-30T04:05:09.783Z,14.87
2022-08-30T04:07:37.021Z,14.85
2022-08-30T04:10:06.026Z,14.81
2022-08-30T04:12:33.012Z,14.80
2022-08-30T04:14:59.843Z,14.75
2022-08-30T04:17:26.790Z,14.75
2022-08-30T04:19:53.721Z,14.74
2022-08-30T04:22:21.277Z,14.72
2022-08-30T04:24:48.144Z,14.71
2022-08-30T04:27:15.072Z,14.67
2022-08-30T04:29:41.961Z,14.64
2022-08-30T04:32:08.868Z,14.66
2022-08-30T04:34:35.833Z,14.69
2022-08-30T04:37:02.781Z,14.69
2022-08-30T04:39:31.124Z,14.70
2022-08-30T04:41:58.832Z,14.67
2022-08-30T04:44:27.542Z,14.70
2022-08-30T04:46:54.689Z,14.67
2022-08-30T04:49:22.926Z,14.70
2022-08-30T04:51:49.873Z,14.68
2022-08-30T04:54:16.728Z,14.68
2022-08-30T04:56:43.907Z,14.66
2022-08-30T04:59:10.763Z,14.65
2022-08-30T05:01:44.862Z,14.66
2022-08-30T05:04:14.147Z,14.65
2022-08-30T05:06:41.027Z,14.63
2022-08-30T05:09:07.919Z,14.64
2022-08-30T05:11:34.999Z,14.67
2022-08-30T05:14:01.985Z,14.68
2022-08-30T05:16:28.978Z,14.69
2022-08-30T05:18:56.003Z,14.65
2022-08-30T05:21:28.251Z,14.65
2022-08-30T05:23:57.436Z,14.63
2022-08-30T05:26:28.499Z,14.64
2022-08-30T05:28:56.240Z,14.64
2022-08-30T05:31:26.681Z,14.62
2022-08-30T05:33:55.089Z,14.64
2022-08-30T05:36:24.884Z,14.64
2022-08-30T05:38:52.568Z,14.63
2022-08-30T05:41:21.461Z,14.63
2022-08-30T05:43:48.789Z,14.64
2022-08-30T05:46:19.926Z,14.65
2022-08-30T05:48:47.495Z,14.62
2022-08-30T05:51:21.064Z,14.57
2022-08-30T05:53:49.756Z,14.57
2022-08-30T05:56:19.195Z,14.57
2022-08-30T05:58:46.253Z,14.52
2022-08-30T06:01:20.268Z,14.53
2022-08-30T06:03:47.709Z,14.57
2022-08-30T06:06:14.975Z,14.55
2022-08-30T06:08:45.632Z,14.55
2022-08-30T06:11:13.945Z,14.54
2022-08-30T06:13:42.063Z,14.59
2022-08-30T06:16:12.236Z,14.60
2022-08-30T06:18:39.691Z,14.56
2022-08-30T06:21:07.216Z,14.56
2022-08-30T06:23:34.610Z,14.55
2022-08-30T06:26:08.104Z,14.52
2022-08-30T06:28:35.169Z,14.51
2022-08-30T06:31:05.471Z,14.53
2022-08-30T06:33:32.843Z,14.45
2022-08-30T06:36:12.487Z,14.48
2022-08-30T06:38:40.328Z,14.50
2022-08-30T06:41:12.820Z,14.54
2022-08-30T06:43:40.016Z,14.55
2022-08-30T06:46:10.851Z,14.55
2022-08-30T06:48:38.146Z,14.51
2022-08-30T06:51:05.825Z,14.52
2022-08-30T06:53:33.617Z,14.55
2022-08-30T06:56:03.967Z,14.50
2022-08-30T06:58:31.881Z,14.51
2022-08-30T07:00:58.873Z,14.47
2022-08-30T07:03:29.052Z,14.47
2022-08-30T07:05:56.945Z,14.45
2022-08-30T07:08:25.272Z,14.50
2022-08-30T07:10:54.665Z,14.52
2022-08-30T07:13:24.070Z,14.48
2022-08-30T07:15:52.516Z,14.49
2022-08-30T07:18:37.842Z,14.52
2022-08-30T07:21:14.031Z,14.52
2022-08-30T07:23:44.142Z,14.48
2022-08-30T07:26:13.744Z,14.45
2022-08-30T07:28:43.544Z,14.49
2022-08-30T07:31:11.265Z,14.52
2022-08-30T07:33:38.444Z,14.51
2022-08-30T07:36:05.495Z,14.52
2022-08-30T07:38:32.468Z,14.53
2022-08-30T07:41:01.260Z,14.53
2022-08-30T07:43:29.488Z,14.55
2022-08-30T07:46:00.648Z,14.57
2022-08-30T07:48:27.648Z,14.55
2022-08-30T07:50:57.704Z,14.59
2022-08-30T07:53:27.291Z,14.59
2022-08-30T07:55:54.396Z,14.56
2022-08-30T07:58:21.673Z,14.57
2022-08-30T08:00:49.039Z,14.58
2022-08-30T08:03:16.164Z,14.54
2022-08-30T08:05:45.508Z,14.54
2022-08-30T08:08:13.619Z,14.56
2022-08-30T08:10:42.295Z,14.58
2022-08-30T08:13:09.788Z,14.58
2022-08-30T08:15:36.837Z,14.57
2022-08-30T08:18:04.549Z,14.54
2022-08-30T08:20:32.892Z,14.55
2022-08-30T08:23:00.072Z,14.54
2022-08-30T08:25:27.461Z,14.55
2022-08-30T08:27:54.412Z,14.54
2022-08-30T08:30:23.048Z,14.54
2022-08-30T08:32:51.471Z,14.54
2022-08-30T08:35:18.335Z,14.55
2022-08-30T08:37:45.801Z,14.54
2022-08-30T08:40:18.629Z,14.57
2022-08-30T08:42:56.778Z,14.58
2022-08-30T08:45:52.169Z,14.60
2022-08-30T08:48:28.797Z,14.59
2022-08-30T08:51:20.017Z,14.59
2022-08-30T08:54:03.795Z,14.57
2022-08-30T08:56:33.274Z,14.56
2022-08-30T08:59:00.214Z,14.57
2022-08-30T09:01:30.148Z,14.60
2022-08-30T09:03:59.491Z,14.58
2022-08-30T09:06:38.069Z,14.55
2022-08-30T09:09:09.081Z,14.59
2022-08-30T09:11:37.367Z,14.64
2022-08-30T09:14:10.698Z,14.64
2022-08-30T09:17:02.888Z,14.65
2022-08-30T09:19:42.437Z,14.66
2022-08-30T09:22:17.754Z,14.68
2022-08-30T09:24:47.561Z,14.68
2022-08-30T09:27:24.142Z,14.67
2022-08-30T09:30:21.146Z,14.68
2022-08-30T09:32:58.549Z,14.66
2022-08-30T09:35:52.133Z,14.66
2022-08-30T09:38:26.449Z,14.66
2022-08-30T09:40:56.412Z,14.68
2022-08-30T09:43:30.013Z,14.69
2022-08-30T09:46:02.850Z,14.66
2022-08-30T09:48:45.768Z,14.68
2022-08-30T09:51:13.278Z,14.67
2022-08-30T09:54:07.134Z,14.67
2022-08-30T09:57:19.162Z,14.67
2022-08-30T10:00:00.402Z,14.66
2022-08-30T10:02:55.838Z,14.72
2022-08-30T10:05:48.321Z,14.71
2022-08-30T10:08:47.670Z,14.73
2022-08-30T10:11:28.852Z,14.77
2022-08-30T10:13:56.792Z,14.74
2022-08-30T10:16:50.776Z,14.78
2022-08-30T10:19:41.630Z,14.77
2022-08-30T10:22:11.291Z,14.77
2022-08-30T10:24:44.128Z,14.75
2022-08-30T10:27:26.976Z,14.75
2022-08-30T10:30:00.727Z,14.72
2022-08-30T10:32:35.888Z,14.71
2022-08-30T10:35:09.311Z,14.71
2022-08-30T10:38:08.825Z,14.71
2022-08-30T10:40:58.301Z,14.69
2022-08-30T10:43:34.445Z,14.74
2022-08-30T10:46:08.169Z,14.74
2022-08-30T10:48:44.337Z,14.70
2022-08-30T10:51:28.170Z,14.73
2022-08-30T10:54:13.564Z,14.74
2022-08-30T10:56:49.557Z,14.74
2022-08-30T10:59:20.692Z,14.73
2022-08-30T11:01:53.612Z,14.74
2022-08-30T11:04:58.171Z,14.75
2022-08-30T11:07:44.225Z,14.77
2022-08-30T11:10:18.110Z,14.78
2022-08-30T11:13:09.096Z,14.78
2022-08-30T11:15:53.169Z,14.77
2022-08-30T11:18:20.501Z,14.82
2022-08-30T11:20:50.976Z,14.80
2022-08-30T11:23:24.744Z,14.83
2022-08-30T11:26:03.529Z,14.83
2022-08-30T11:29:00.908Z,14.85
2022-08-30T11:31:40.663Z,14.86
2022-08-30T11:34:09.047Z,14.87
2022-08-30T11:36:46.054Z,14.84
2022-08-30T11:39:48.275Z,14.85
2022-08-30T11:42:24.544Z,14.84
2022-08-30T11:45:25.493Z,14.83
2022-08-30T11:47:59.798Z,14.85
2022-08-30T11:50:40.460Z,14.85
2022-08-30T11:53:25.529Z,14.87
2022-08-30T11:56:23.740Z,14.85
2022-08-30T11:58:59.624Z,14.87
2022-08-30T12:01:50.191Z,14.88
2022-08-30T12:04:27.956Z,14.86
2022-08-30T12:06:59.925Z,14.84
2022-08-30T12:09:26.745Z,14.85
2022-08-30T12:12:02.779Z,14.85
2022-08-30T12:14:35.687Z,14.83
2022-08-30T12:17:29.235Z,14.84
2022-08-30T12:19:58.076Z,14.84
2022-08-30T12:22:25.970Z,14.84
2022-08-30T12:24:54.572Z,14.83
2022-08-30T12:27:33.431Z,14.85
2022-08-30T12:30:05.134Z,14.82
2022-08-30T12:32:33.229Z,14.80
2022-08-30T12:35:05.342Z,14.83
2022-08-30T12:37:36.393Z,14.81
2022-08-30T12:40:06.849Z,14.83
2022-08-30T12:42:37.749Z,14.80
2022-08-30T12:45:12.024Z,14.80
2022-08-30T12:48:31.648Z,14.81
2022-08-30T12:51:01.394Z,14.78
2022-08-30T12:53:38.692Z,14.78
2022-08-30T12:56:09.881Z,14.79
2022-08-30T12:58:48.123Z,14.80
2022-08-30T13:01:19.494Z,14.84
2022-08-30T13:04:13.733Z,14.82
2022-08-30T13:07:01.520Z,14.85
2022-08-30T13:09:37.865Z,14.84
2022-08-30T13:12:26.444Z,14.84
2022-08-30T13:15:08.773Z,14.82
2022-08-30T13:17:35.660Z,14.86
2022-08-30T13:20:17.504Z,14.86
2022-08-30T13:23:07.961Z,14.89
2022-08-30T13:25:38.359Z,14.89
2022-08-30T13:28:07.564Z,14.91
2022-08-30T13:30:34.659Z,14.91
2022-08-30T13:33:02.201Z,14.92
2022-08-30T13:35:30.578Z,14.92
2022-08-30T13:37:59.893Z,14.96
2022-08-30T13:40:26.886Z,14.96
2022-08-30T13:42:53.942Z,14.97
2022-08-30T13:48:10.405Z,14.95
2022-08-30T13:50:37.285Z,14.95
2022-08-30T13:53:04.317Z,14.94
2022-08-30T13:55:31.508Z,14.92
2022-08-30T13:57:58.501Z,14.89
2022-08-30T14:00:26.827Z,14.87
2022-08-30T14:02:57.643Z,14.85
2022-08-30T14:06:00.510Z,14.88
2022-08-30T14:08:48.671Z,14.88
2022-08-30T14:11:19.784Z,14.87
2022-08-30T14:16:39.441Z,14.88
2022-08-30T14:19:07.430Z,14.94
2022-08-30T14:21:35.745Z,14.95
2022-08-30T14:24:05.356Z,14.93
2022-08-30T14:26:45.894Z,14.92
2022-08-30T14:29:16.420Z,14.93
2022-08-30T14:31:43.781Z,14.94
2022-08-30T14:34:12.255Z,14.94
2022-08-30T14:36:42.081Z,14.91
2022-08-30T14:39:11.796Z,14.87
2022-08-30T14:41:47.810Z,14.84
2022-08-30T14:44:16.609Z,14.84
2022-08-30T14:46:44.341Z,14.86
2022-08-30T14:49:12.645Z,14.85
2022-08-30T14:51:40.132Z,14.85
2022-08-30T14:54:08.264Z,14.82
2022-08-30T14:56:38.282Z,14.86
2022-08-30T14:59:06.345Z,14.85
2022-08-30T15:01:37.016Z,14.85
2022-08-30T15:04:06.167Z,14.86
2022-08-30T15:06:36.660Z,14.83
2022-08-30T15:09:06.360Z,14.84
2022-08-30T15:11:33.431Z,14.83
2022-08-30T15:14:01.682Z,14.84
2022-08-30T15:16:32.122Z,14.82
2022-08-30T15:18:59.982Z,14.85
2022-08-30T15:21:30.615Z,14.87
2022-08-30T15:23:59.029Z,14.87
2022-08-30T15:26:28.162Z,14.87
2022-08-30T15:28:55.576Z,14.86
2022-08-30T15:31:31.235Z,14.87
2022-08-30T15:33:58.887Z,14.86
2022-08-30T15:36:27.595Z,14.86
2022-08-30T15:38:59.443Z,14.89
2022-08-30T15:41:28.013Z,14.89
2022-08-30T15:43:59.717Z,14.86
2022-08-30T15:46:36.123Z,14.86
2022-08-30T15:49:15.616Z,14.89
2022-08-30T15:51:46.003Z,14.88
2022-08-30T15:54:16.483Z,14.87
2022-08-30T15:56:44.295Z,14.85
2022-08-30T15:59:15.165Z,14.84
2022-08-30T16:01:43.126Z,14.83
2022-08-30T16:04:11.008Z,14.84
2022-08-30T16:06:38.832Z,14.84
2022-08-30T16:09:07.617Z,14.83
2022-08-30T16:11:34.781Z,14.83
2022-08-30T16:14:01.859Z,14.81
2022-08-30T16:16:30.721Z,14.83
2022-08-30T16:18:57.912Z,14.86
2022-08-30T16:21:30.543Z,14.86
2022-08-30T16:23:59.992Z,14.85
2022-08-30T16:26:28.742Z,14.84
2022-08-30T16:28:56.043Z,14.83
2022-08-30T16:31:24.534Z,14.86
2022-08-30T16:33:53.169Z,14.85
2022-08-30T16:36:23.213Z,14.85
2022-08-30T16:38:53.487Z,14.82
2022-08-30T16:41:24.009Z,14.82
2022-08-30T16:43:53.238Z,14.83
2022-08-30T16:46:27.143Z,14.82
2022-08-30T16:51:57.746Z,14.84
2022-08-30T16:54:25.189Z,14.84
2022-08-30T16:56:52.230Z,14.83
2022-08-30T16:59:19.381Z,14.83
2022-08-30T17:01:46.558Z,14.82
2022-08-30T17:04:18.523Z,14.83
2022-08-30T17:06:48.362Z,14.83
2022-08-30T17:09:17.295Z,14.83
2022-08-30T17:11:45.063Z,14.85
2022-08-30T17:14:12.116Z,14.81
2022-08-30T17:16:39.164Z,14.85
2022-08-30T17:19:08.729Z,14.83
2022-08-30T17:21:35.966Z,14.84
2022-08-30T17:24:03.637Z,14.85
2022-08-30T17:26:33.373Z,14.85
2022-08-30T17:29:04.223Z,14.83
2022-08-30T17:31:31.547Z,14.83
2022-08-30T17:34:04.117Z,14.84
2022-08-30T17:36:36.889Z,14.84
2022-08-30T17:39:10.858Z,14.84
2022-08-30T17:41:49.665Z,14.84
2022-08-30T17:44:20.038Z,14.83
2022-08-30T17:46:47.098Z,14.81
2022-08-30T17:49:14.026Z,14.81
2022-08-30T17:51:43.062Z,14.82
2022-08-30T17:54:12.716Z,14.81
2022-08-30T17:56:41.171Z,14.78
2022-08-30T17:59:10.667Z,14.77
2022-08-30T18:01:38.491Z,14.74
2022-08-30T18:04:05.889Z,14.75
2022-08-30T18:06:34.294Z,14.78
2022-08-30T18:09:02.825Z,14.73
2022-08-30T18:11:29.713Z,14.74
2022-08-30T18:13:56.710Z,14.74
2022-08-30T18:16:26.206Z,14.72
2022-08-30T18:18:57.279Z,14.72
2022-08-30T18:24:12.652Z,14.73
2022-08-30T18:26:43.169Z,14.71
2022-08-30T18:29:10.789Z,14.75
2022-08-30T18:31:37.713Z,14.72
2022-08-30T18:34:04.816Z,14.72
2022-08-30T18:36:31.778Z,14.70
2022-08-30T18:38:59.107Z,14.69
2022-08-30T18:41:26.928Z,14.68
2022-08-30T18:44:17.125Z,14.69
2022-08-30T18:46:51.273Z,14.67
2022-08-30T18:49:23.645Z,14.67
2022-08-30T18:51:50.521Z,14.67
2022-08-30T18:54:17.996Z,14.66
2022-08-30T18:56:46.139Z,14.70
2022-08-30T18:59:13.217Z,14.67
2022-08-30T19:01:41.174Z,14.66
2022-08-30T19:04:08.184Z,14.65
2022-08-30T19:06:37.654Z,14.64
2022-08-30T19:09:09.100Z,14.63
2022-08-30T19:11:38.214Z,14.63
2022-08-30T19:14:07.656Z,14.59
2022-08-30T19:16:36.136Z,14.60
2022-08-30T19:19:04.517Z,14.59
2022-08-30T19:21:31.415Z,14.58
2022-08-30T19:23:58.848Z,14.58
2022-08-30T19:26:27.540Z,14.56
2022-08-30T19:28:54.560Z,14.56
2022-08-30T19:31:21.424Z,14.57
2022-08-30T19:33:48.337Z,14.55
2022-08-30T19:36:15.247Z,14.54
2022-08-30T19:38:44.493Z,14.53
2022-08-30T19:41:13.181Z,14.54
2022-08-30T19:43:40.920Z,14.53
2022-08-30T19:46:09.067Z,14.54
2022-08-30T19:48:43.025Z,14.53
2022-08-30T19:51:15.165Z,14.52
2022-08-30T19:53:43.177Z,14.49
2022-08-30T19:56:10.245Z,14.50
2022-08-30T19:58:37.144Z,14.53
2022-08-30T20:01:11.846Z,14.52
2022-08-30T20:03:40.120Z,14.49
2022-08-30T20:06:10.381Z,14.47
2022-08-30T20:08:37.600Z,14.49
2022-08-30T20:11:05.400Z,14.44
2022-08-30T20:13:34.045Z,14.45
2022-08-30T20:16:01.665Z,14.44
2022-08-30T20:18:29.163Z,14.50
2022-08-30T20:20:56.624Z,14.49
2022-08-30T20:23:25.605Z,14.51
2022-08-30T20:24:28.162Z,14.73
2022-08-30T20:25:54.745Z,14.53
2022-08-30T20:28:24.580Z,14.51
2022-08-30T20:30:53.273Z,14.52
2022-08-30T20:33:22.539Z,14.51
2022-08-30T20:35:50.066Z,14.53
2022-08-30T20:38:22.126Z,14.54
2022-08-30T20:40:55.205Z,14.54
2022-08-30T20:43:24.722Z,14.53
2022-08-30T20:45:55.565Z,14.54
2022-08-30T20:48:23.916Z,14.54
2022-08-30T20:50:53.710Z,14.53
2022-08-30T20:53:20.596Z,14.53
2022-08-30T20:55:48.266Z,14.52
2022-08-30T20:58:15.591Z,14.51
2022-08-30T21:00:46.006Z,14.51
2022-08-30T21:03:27.350Z,14.50
2022-08-30T21:05:56.579Z,14.49
2022-08-30T21:08:24.582Z,14.51
2022-08-30T21:10:52.439Z,14.49
2022-08-30T21:13:19.264Z,14.51
2022-08-30T21:15:50.515Z,14.52
2022-08-30T21:18:17.597Z,14.54
2022-08-30T21:20:44.669Z,14.53
2022-08-30T21:23:14.575Z,14.50
2022-08-30T21:25:43.356Z,14.48
2022-08-30T21:28:10.929Z,14.45
2022-08-30T21:30:38.247Z,14.49
2022-08-30T21:33:06.738Z,14.47
2022-08-30T21:35:52.644Z,14.45
2022-08-30T21:38:20.103Z,14.48
2022-08-30T21:40:48.527Z,14.45
2022-08-30T21:43:16.304Z,14.45
2022-08-30T21:45:44.847Z,14.41
2022-08-30T21:48:13.437Z,14.41
2022-08-30T21:50:43.429Z,14.40
2022-08-30T21:53:10.532Z,14.40
2022-08-30T21:55:37.550Z,14.36
2022-08-30T21:58:04.749Z,14.39
2022-08-30T22:00:33.677Z,14.39
2022-08-30T22:03:00.950Z,14.36
2022-08-30T22:05:28.115Z,14.29
2022-08-30T22:07:55.204Z,14.27
2022-08-30T22:10:22.271Z,14.25
2022-08-30T22:12:49.483Z,14.22
2022-08-30T22:15:16.885Z,14.19
2022-08-30T22:17:44.082Z,14.13
2022-08-30T22:20:12.032Z,14.12
2022-08-30T22:22:45.688Z,14.10
2022-08-30T22:25:12.660Z,14.17
2022-08-30T22:27:39.547Z,14.19
2022-08-30T22:30:07.042Z,14.22
2022-08-30T22:32:34.135Z,14.22
2022-08-30T22:35:00.962Z,14.21
2022-08-30T22:37:27.843Z,14.22
2022-08-30T22:39:54.783Z,14.20
2022-08-30T22:42:21.754Z,14.19
2022-08-30T22:44:48.606Z,14.19
2022-08-30T22:47:15.460Z,14.18
2022-08-30T22:49:42.272Z,14.13
2022-08-30T22:52:09.696Z,14.09
2022-08-30T22:54:37.849Z,14.08
2022-08-30T22:57:05.068Z,14.10
2022-08-30T22:59:32.458Z,14.10
2022-08-30T23:01:59.690Z,14.11
2022-08-30T23:04:26.728Z,14.12
2022-08-30T23:06:53.816Z,14.10
2022-08-30T23:09:20.697Z,14.09
2022-08-30T23:11:47.637Z,14.07
2022-08-30T23:14:14.473Z,14.10
2022-08-30T23:16:41.489Z,14.11
2022-08-30T23:19:08.417Z,14.17
2022-08-30T23:21:35.328Z,14.21
2022-08-30T23:24:20.903Z,14.21
2022-08-30T23:27:06.360Z,14.23
2022-08-30T23:29:52.838Z,14.25
2022-08-30T23:32:39.067Z,14.24
2022-08-30T23:35:29.297Z,14.25
2022-08-30T23:38:16.284Z,14.23
2022-08-30T23:41:01.648Z,14.22
2022-08-30T23:43:47.351Z,14.22
2022-08-30T23:46:32.604Z,14.25
2022-08-30T23:49:18.067Z,14.25
2022-08-30T23:52:03.231Z,14.29
2022-08-30T23:54:48.668Z,14.32
2022-08-30T23:57:33.993Z,14.29
